Time;durP1;ratioP1;P1;durP2;ratioP2;P2;SDS_P1;SDS_P2;PMS_P1;PMS_P2;Temp;Humidity;BMP_temperature;BMP_pressure;BME280_temperature;BME280_humidity;BME280_pressure;Samples;Min_cycle;Max_cycle;Signal;HPM_P1;HPM_P2
2022/04/17 00:00:11;;;;;;;;;;;;;;;1.03;100.00;96986.81;1023537;28;19961;-68
2022/04/17 00:00:41;;;;;;;;;;;;;;;0.99;100.00;96984.75;1026994;28;19925;-70
2022/04/17 00:01:12;;;;;;;;;;;;;;;1.02;100.00;96982.66;1019767;29;19933;-70
2022/04/17 00:01:45;;;;;;;;;;;;;;;0.98;100.00;96981.38;1017879;29;19926;-69
2022/04/17 00:02:15;;;;;;;;;;;;;;;1.02;100.00;96987.81;1023044;29;20269;-69
2022/04/17 00:02:46;;;;;;;;;;;;;;;0.99;100.00;96982.97;1024350;28;19928;-70
2022/04/17 00:03:21;;;;;;;;;;;;;;;1.00;100.00;96986.38;1026312;28;19918;-70
2022/04/17 00:03:52;;;;;;;;;;;;;;;1.01;100.00;96982.81;1023763;28;20329;-69
2022/04/17 00:04:22;;;;;;;;;;;;;;;0.96;100.00;96985.91;1027011;28;19925;-70
2022/04/17 00:04:53;;;;;;;;;;;;;;;0.96;100.00;96983.31;1026844;28;19918;-70
2022/04/17 00:05:23;;;;;;;;;;;;;;;0.96;100.00;96992.84;1024278;28;19918;-70
2022/04/17 00:05:53;;;;;;;;;;;;;;;0.94;100.00;96982.72;1027193;28;20476;-69
2022/04/17 00:06:24;;;;;;;;;;;;;;;0.92;100.00;96984.66;1026904;28;20470;-69
2022/04/17 00:06:54;;;;;;;;;;;;;;;0.94;100.00;96982.72;1022699;28;19918;-68
2022/04/17 00:07:24;;;;;;;;;;;;;;;0.95;100.00;96981.72;1023522;28;19918;-69
2022/04/17 00:07:55;;;;;;;;;;;;;;;0.93;100.00;96991.41;1031080;28;19988;-69
2022/04/17 00:08:27;;;;;;;;;;;;;;;0.94;100.00;96982.72;1027029;28;19925;-69
2022/04/17 00:08:57;;;;;;;;;;;;;;;0.90;100.00;96987.38;1029138;28;19919;-70
2022/04/17 00:09:27;;;;;;;;;;;;;;;0.92;100.00;96979.47;1031083;28;19914;-69
2022/04/17 00:09:58;;;;;;;;;;;;;;;0.90;100.00;96989.16;1031336;28;19913;-69
2022/04/17 00:10:28;;;;;;;;;;;;;;;0.88;100.00;96981.59;1026926;28;19913;-69
2022/04/17 00:10:58;;;;;;;;;;;;;;;0.90;100.00;96986.59;1027355;28;19918;-69
2022/04/17 00:11:28;;;;;;;;;;;;;;;0.89;100.00;96983.19;1027085;28;20412;-70
2022/04/17 00:12:01;;;;;;;;;;;;;;;0.87;100.00;96985.16;1023031;29;19957;-69
2022/04/17 00:12:31;;;;;;;;;;;;;;;0.88;100.00;96975.63;1022835;28;19918;-70
2022/04/17 00:13:02;;;;;;;;;;;;;;;0.85;100.00;96981.94;1015498;29;19958;-70
2022/04/17 00:13:33;;;;;;;;;;;;;;;0.84;100.00;96987.25;1019319;29;20292;-69
2022/04/17 00:14:04;;;;;;;;;;;;;;;0.87;100.00;96974.00;1019205;28;19914;-69
2022/04/17 00:14:34;;;;;;;;;;;;;;;0.87;100.00;96982.59;1015312;29;19915;-70
2022/04/17 00:15:05;;;;;;;;;;;;;;;0.89;100.00;96987.56;1018997;29;20219;-69
2022/04/17 00:15:35;;;;;;;;;;;;;;;0.87;100.00;96971.41;1018990;28;20385;-68
2022/04/17 00:16:05;;;;;;;;;;;;;;;0.88;100.00;96980.78;1026747;28;20415;-70
2022/04/17 00:16:36;;;;;;;;;;;;;;;0.87;100.00;96979.16;1030245;28;19920;-71
2022/04/17 00:17:06;;;;;;;;;;;;;;;0.80;100.00;96976.47;1029633;28;20380;-69
2022/04/17 00:17:43;;;;;;;;;;;;;;;0.84;100.00;96972.59;1028223;28;19918;-69
2022/04/17 00:18:14;;;;;;;;;;;;;;;0.83;100.00;96975.31;1031201;28;19992;-71
2022/04/17 00:18:44;;;;;;;;;;;;;;;0.80;100.00;96975.66;1027672;28;19925;-69
2022/04/17 00:19:15;;;;;;;;;;;;;;;0.77;100.00;96979.41;1030071;28;19958;-70
2022/04/17 00:19:45;;;;;;;;;;;;;;;0.81;100.00;96977.28;1024959;28;20380;-71
2022/04/17 00:20:16;;;;;;;;;;;;;;;0.80;100.00;96975.66;1023077;29;19926;-70
2022/04/17 00:20:46;;;;;;;;;;;;;;;0.80;100.00;96975.66;1022859;28;19946;-69
2022/04/17 00:21:16;;;;;;;;;;;;;;;0.79;100.00;96976.66;1022853;28;19923;-70
2022/04/17 00:21:47;;;;;;;;;;;;;;;0.78;100.00;96972.47;1019091;29;20028;-68
2022/04/17 00:22:17;;;;;;;;;;;;;;;0.79;100.00;96971.47;1015417;29;19934;-69
2022/04/17 00:22:48;;;;;;;;;;;;;;;0.80;100.00;96975.66;1018883;29;19977;-69
2022/04/17 00:23:18;;;;;;;;;;;;;;;0.80;100.00;96973.06;1023379;28;19919;-70
2022/04/17 00:23:49;;;;;;;;;;;;;;;0.80;100.00;96971.28;1027157;28;19922;-70
2022/04/17 00:24:19;;;;;;;;;;;;;;;0.79;100.00;96969.69;1020088;28;20104;-70
2022/04/17 00:24:49;;;;;;;;;;;;;;;0.78;100.00;96969.88;1019164;29;19926;-71
2022/04/17 00:25:20;;;;;;;;;;;;;;;0.78;100.00;96967.28;1018922;29;20374;-70
2022/04/17 00:25:50;;;;;;;;;;;;;;;0.81;100.00;96964.38;1018741;28;19922;-68
2022/04/17 00:26:21;;;;;;;;;;;;;;;0.79;100.00;96961.94;1019329;29;20487;-70
2022/04/17 00:26:51;;;;;;;;;;;;;;;0.79;100.00;96968.91;1022123;29;19969;-68
2022/04/17 00:27:22;;;;;;;;;;;;;;;0.77;100.00;96971.66;1018618;29;20381;-70
2022/04/17 00:27:52;;;;;;;;;;;;;;;0.75;100.00;96968.44;1023083;28;19927;-70
2022/04/17 00:28:25;;;;;;;;;;;;;;;0.75;100.00;96962.47;1026915;28;20368;-69
2022/04/17 00:28:57;;;;;;;;;;;;;;;0.75;100.00;96962.47;1027221;28;19922;-70
2022/04/17 00:29:28;;;;;;;;;;;;;;;0.75;100.00;96967.63;1022374;28;20037;-69
2022/04/17 00:29:58;;;;;;;;;;;;;;;0.72;100.00;96957.63;1021667;28;19923;-69
2022/04/17 00:30:29;;;;;;;;;;;;;;;0.69;100.00;96962.16;1018956;29;20262;-69
2022/04/17 00:30:59;;;;;;;;;;;;;;;0.70;100.00;96953.47;1023090;28;19969;-70
2022/04/17 00:31:29;;;;;;;;;;;;;;;0.70;100.00;96962.97;1026912;28;19936;-70
2022/04/17 00:32:03;;;;;;;;;;;;;;;0.72;100.00;96955.84;1023094;29;20021;-69
2022/04/17 00:32:33;;;;;;;;;;;;;;;0.73;100.00;96960.03;1022169;28;19918;-69
2022/04/17 00:33:04;;;;;;;;;;;;;;;0.74;100.00;96950.50;1019626;29;20487;-69
2022/04/17 00:33:34;;;;;;;;;;;;;;;0.70;100.00;96956.03;1019242;29;19918;-69
2022/04/17 00:34:04;;;;;;;;;;;;;;;0.72;100.00;96962.81;1019015;29;19926;-69
2022/04/17 00:34:36;;;;;;;;;;;;;;;0.71;100.00;96956.84;1022060;28;19922;-69
2022/04/17 00:35:07;;;;;;;;;;;;;;;0.70;100.00;96955.22;1019072;29;19954;-70
2022/04/17 00:35:38;;;;;;;;;;;;;;;0.68;100.00;96957.97;1017762;29;20428;-69
2022/04/17 00:36:12;;;;;;;;;;;;;;;0.67;100.00;96961.53;1023353;28;20234;-69
2022/04/17 00:36:42;;;;;;;;;;;;;;;0.69;100.00;96956.19;1025566;28;19918;-71
2022/04/17 00:37:12;;;;;;;;;;;;;;;0.67;100.00;96958.97;1023500;28;19923;-69
2022/04/17 00:37:43;;;;;;;;;;;;;;;0.67;100.00;96958.13;1024209;28;19990;-69
2022/04/17 00:38:13;;;;;;;;;;;;;;;0.66;100.00;96956.53;1030816;28;19928;-69
2022/04/17 00:38:44;;;;;;;;;;;;;;;0.66;100.00;96959.91;1027251;28;20629;-70
2022/04/17 00:39:14;;;;;;;;;;;;;;;0.64;100.00;96956.72;1022987;28;19944;-70
2022/04/17 00:39:44;;;;;;;;;;;;;;;0.66;100.00;96956.53;1027209;28;19940;-67
2022/04/17 00:40:14;;;;;;;;;;;;;;;0.65;100.00;96958.31;1022918;29;20400;-70
2022/04/17 00:40:45;;;;;;;;;;;;;;;0.63;100.00;96955.09;1022686;28;20336;-69
2022/04/17 00:41:15;;;;;;;;;;;;;;;0.64;100.00;96956.72;1026797;28;19985;-68
2022/04/17 00:41:48;;;;;;;;;;;;;;;0.66;100.00;96956.53;1026619;28;19984;-68
2022/04/17 00:42:19;;;;;;;;;;;;;;;0.67;100.00;96956.38;1027280;28;20009;-70
2022/04/17 00:42:49;;;;;;;;;;;;;;;0.66;100.00;96959.91;1023077;28;19922;-69
2022/04/17 00:43:25;;;;;;;;;;;;;;;0.65;100.00;96958.31;1022877;29;20545;-67
2022/04/17 00:43:55;;;;;;;;;;;;;;;0.65;100.00;96957.50;1019034;29;20422;-69
2022/04/17 00:44:26;;;;;;;;;;;;;;;0.63;100.00;96959.44;1019706;28;20034;-67
2022/04/17 00:44:56;;;;;;;;;;;;;;;0.64;100.00;96955.91;1026881;28;20017;-69
2022/04/17 00:45:27;;;;;;;;;;;;;;;0.64;100.00;96956.72;1027140;28;19953;-67
2022/04/17 00:45:57;;;;;;;;;;;;;;;0.65;100.00;96955.72;1022716;29;19922;-68
2022/04/17 00:46:27;;;;;;;;;;;;;;;0.66;100.00;96952.16;1021591;28;19926;-67
2022/04/17 00:46:58;;;;;;;;;;;;;;;0.67;100.00;96955.53;1022587;29;19923;-69
2022/04/17 00:47:28;;;;;;;;;;;;;;;0.66;100.00;96959.91;1018953;29;19918;-69
2022/04/17 00:47:58;;;;;;;;;;;;;;;0.65;100.00;96947.97;1019005;29;19957;-68
2022/04/17 00:48:29;;;;;;;;;;;;;;;0.65;100.00;96958.31;1022961;29;19919;-69
2022/04/17 00:48:59;;;;;;;;;;;;;;;0.66;100.00;96953.94;1023004;29;19922;-69
2022/04/17 00:49:29;;;;;;;;;;;;;;;0.67;100.00;96951.22;1031070;28;19972;-68
2022/04/17 00:50:00;;;;;;;;;;;;;;;0.67;100.00;96956.38;1030635;28;19925;-68
2022/04/17 00:50:30;;;;;;;;;;;;;;;0.65;100.00;96955.72;1026842;28;19918;-69
2022/04/17 00:51:00;;;;;;;;;;;;;;;0.63;100.00;96952.50;1023195;29;19918;-70
2022/04/17 00:51:31;;;;;;;;;;;;;;;0.67;100.00;96950.38;1022350;28;19918;-67
2022/04/17 00:52:01;;;;;;;;;;;;;;;0.70;100.00;96956.03;1025800;28;19922;-70
2022/04/17 00:52:32;;;;;;;;;;;;;;;0.68;100.00;96952.81;1018894;29;20288;-68
2022/04/17 00:53:03;;;;;;;;;;;;;;;0.68;100.00;96952.00;1025126;28;20011;-68
2022/04/17 00:53:33;;;;;;;;;;;;;;;0.65;100.00;96952.34;1027056;28;19927;-67
2022/04/17 00:54:03;;;;;;;;;;;;;;;0.70;100.00;96956.03;1026770;28;19918;-67
2022/04/17 00:54:34;;;;;;;;;;;;;;;0.69;100.00;96948.44;1022813;29;20391;-68
2022/04/17 00:55:05;;;;;;;;;;;;;;;0.67;100.00;96951.22;1023010;28;19919;-67
2022/04/17 00:55:35;;;;;;;;;;;;;;;0.69;100.00;96953.59;1019140;29;20331;-69
2022/04/17 00:56:06;;;;;;;;;;;;;;;0.67;100.00;96948.63;1023109;28;19924;-69
2022/04/17 00:56:37;;;;;;;;;;;;;;;0.70;100.00;96945.72;1024132;28;19914;-68
2022/04/17 00:57:07;;;;;;;;;;;;;;;0.69;100.00;96946.66;1022041;28;19914;-67
2022/04/17 00:57:37;;;;;;;;;;;;;;;0.66;100.00;96949.59;1019336;29;19923;-67
2022/04/17 00:58:07;;;;;;;;;;;;;;;0.66;100.00;96944.41;1018606;28;20510;-69
2022/04/17 00:58:39;;;;;;;;;;;;;;;0.65;100.00;96947.19;1018834;29;19978;-70
2022/04/17 00:59:09;;;;;;;;;;;;;;;0.65;100.00;96949.75;1019186;29;19919;-69
2022/04/17 00:59:40;;;;;;;;;;;;;;;0.62;100.00;96953.47;1023024;28;20392;-67
2022/04/17 01:00:11;;;;;;;;;;;;;;;0.64;100.00;96948.97;1022633;28;20017;-68
2022/04/17 01:00:41;;;;;;;;;;;;;;;0.64;100.00;96945.59;1023084;28;19926;-70
2022/04/17 01:01:14;;;;;;;;;;;;;;;0.65;100.00;96947.19;1026633;28;20409;-69
2022/04/17 01:01:45;;;;;;;;;;;;;;;0.66;100.00;96947.00;1022950;28;19989;-67
2022/04/17 01:02:15;;;;;;;;;;;;;;;0.64;100.00;96943.81;1022801;29;19974;-68
2022/04/17 01:02:45;;;;;;;;;;;;;;;0.63;100.00;96943.94;1014671;29;19938;-68
2022/04/17 01:03:17;;;;;;;;;;;;;;;0.62;100.00;96940.56;1017088;29;19983;-67
2022/04/17 01:03:48;;;;;;;;;;;;;;;0.65;100.00;96947.19;1026767;28;20119;-69
2022/04/17 01:04:18;;;;;;;;;;;;;;;0.61;100.00;96941.56;1023662;28;19922;-68
2022/04/17 01:04:48;;;;;;;;;;;;;;;0.59;100.00;96937.53;1030470;28;20276;-69
2022/04/17 01:05:19;;;;;;;;;;;;;;;0.58;100.00;96941.88;1027029;28;19968;-69
2022/04/17 01:05:50;;;;;;;;;;;;;;;0.59;100.00;96940.91;1031245;28;19968;-68
2022/04/17 01:06:20;;;;;;;;;;;;;;;0.56;100.00;96936.06;1034845;28;19924;-69
2022/04/17 01:06:50;;;;;;;;;;;;;;;0.58;100.00;96936.72;1029915;28;19967;-68
2022/04/17 01:07:21;;;;;;;;;;;;;;;0.56;100.00;96936.06;1024037;28;19925;-67
2022/04/17 01:07:52;;;;;;;;;;;;;;;0.55;100.00;96931.09;1018684;29;19914;-70
2022/04/17 01:08:25;;;;;;;;;;;;;;;0.55;100.00;96938.84;1015060;28;20413;-70
2022/04/17 01:08:55;;;;;;;;;;;;;;;0.54;100.00;96934.63;1018438;29;19911;-67
2022/04/17 01:09:26;;;;;;;;;;;;;;;0.53;100.00;96933.03;1019236;29;19914;-67
2022/04/17 01:09:56;;;;;;;;;;;;;;;0.55;100.00;96931.91;1019234;29;19922;-67
2022/04/17 01:10:26;;;;;;;;;;;;;;;0.54;100.00;96935.47;1018370;29;19990;-68
2022/04/17 01:10:57;;;;;;;;;;;;;;;0.52;100.00;96931.44;1022780;29;19922;-70
2022/04/17 01:11:28;;;;;;;;;;;;;;;0.54;100.00;96932.06;1018832;29;19914;-66
2022/04/17 01:11:58;;;;;;;;;;;;;;;0.54;100.00;96935.47;1018883;29;19919;-69
2022/04/17 01:12:28;;;;;;;;;;;;;;;0.54;100.00;96930.28;1025229;28;19914;-66
2022/04/17 01:12:59;;;;;;;;;;;;;;;0.52;100.00;96931.44;1023165;29;19961;-70
2022/04/17 01:13:30;;;;;;;;;;;;;;;0.51;100.00;96928.06;1023223;28;19918;-67
2022/04/17 01:14:00;;;;;;;;;;;;;;;0.51;100.00;96929.84;1027725;28;19914;-69
2022/04/17 01:14:31;;;;;;;;;;;;;;;0.50;100.00;96928.19;1015022;29;19915;-69
2022/04/17 01:15:02;;;;;;;;;;;;;;;0.50;100.00;96923.84;1014849;29;20298;-67
2022/04/17 01:15:33;;;;;;;;;;;;;;;0.47;100.00;96926.78;1015344;29;19919;-67
2022/04/17 01:16:05;;;;;;;;;;;;;;;0.46;100.00;96925.97;1019118;29;19915;-70
2022/04/17 01:16:36;;;;;;;;;;;;;;;0.45;100.00;96916.63;1023958;28;19960;-70
2022/04/17 01:17:07;;;;;;;;;;;;;;;0.43;100.00;96923.72;1025937;28;19953;-68
2022/04/17 01:17:37;;;;;;;;;;;;;;;0.44;100.00;96917.59;1023023;28;19959;-68
2022/04/17 01:18:07;;;;;;;;;;;;;;;0.45;100.00;96921.78;1023545;28;20066;-69
2022/04/17 01:19:13;;;;;;;;;;;;;;;0.44;100.00;96922.75;1018792;29;20444;-70
2022/04/17 01:19:43;;;;;;;;;;;;;;;0.43;100.00;96920.34;1016057;29;20057;-68
2022/04/17 01:20:13;;;;;;;;;;;;;;;0.43;100.00;96917.75;1023869;28;19968;-70
2022/04/17 01:20:44;;;;;;;;;;;;;;;0.45;100.00;96919.19;1024001;28;19915;-70
2022/04/17 01:21:18;;;;;;;;;;;;;;;0.42;100.00;96921.31;1026515;28;19940;-69
2022/04/17 01:21:49;;;;;;;;;;;;;;;0.45;100.00;96915.81;1022593;29;19918;-67
2022/04/17 01:22:19;;;;;;;;;;;;;;;0.43;100.00;96915.16;1018643;29;19961;-70
2022/04/17 01:22:49;;;;;;;;;;;;;;;0.42;100.00;96918.72;1014802;29;20476;-69
2022/04/17 01:26:57;;;;;;;;;;;;;;;0.49;100.00;96911.91;1025893;28;20032;-68
2022/04/17 01:27:28;;;;;;;;;;;;;;;0.48;100.00;96910.31;1018784;28;20229;-67
2022/04/17 01:27:59;;;;;;;;;;;;;;;0.46;100.00;96914.84;1023878;28;19923;-67
2022/04/17 01:28:29;;;;;;;;;;;;;;;0.45;100.00;96915.81;1022677;29;19914;-70
2022/04/17 01:28:59;;;;;;;;;;;;;;;0.41;100.00;96914.56;1025681;28;19922;-69
2022/04/17 01:29:31;;;;;;;;;;;;;;;0.43;100.00;96917.75;1023079;28;19926;-67
2022/04/17 01:30:03;;;;;;;;;;;;;;;0.40;100.00;96920.66;1023308;28;19918;-69
2022/04/17 01:30:33;;;;;;;;;;;;;;;0.40;100.00;96924.06;1031340;28;19918;-67
2022/04/17 01:31:04;;;;;;;;;;;;;;;0.40;100.00;96918.09;1030964;28;19930;-67
2022/04/17 01:31:34;;;;;;;;;;;;;;;0.39;100.00;96921.66;1035242;28;19980;-68
2022/04/17 01:32:05;;;;;;;;;;;;;;;0.38;100.00;96920.84;1035660;28;19924;-68
2022/04/17 01:32:35;;;;;;;;;;;;;;;0.39;100.00;96924.22;1026457;28;19925;-68
2022/04/17 01:33:06;;;;;;;;;;;;;;;0.38;100.00;96920.06;1019509;29;19907;-66
2022/04/17 01:33:36;;;;;;;;;;;;;;;0.35;100.00;96917.81;1014675;29;19911;-67
2022/04/17 01:34:06;;;;;;;;;;;;;;;0.33;100.00;96927.47;1014984;29;20305;-69
2022/04/17 01:34:37;;;;;;;;;;;;;;;0.30;100.00;96915.72;1023274;28;19913;-67
2022/04/17 01:35:07;;;;;;;;;;;;;;;0.31;100.00;96924.28;1026848;28;20409;-68
2022/04/17 01:35:38;;;;;;;;;;;;;;;0.28;100.00;96924.63;1026801;28;20001;-67
2022/04/17 01:36:08;;;;;;;;;;;;;;;0.26;100.00;96917.03;1025124;28;19910;-68
2022/04/17 01:36:38;;;;;;;;;;;;;;;0.29;100.00;96921.06;1026526;28;19922;-67
2022/04/17 01:37:09;;;;;;;;;;;;;;;0.27;100.00;96923.81;1026455;28;19921;-68
2022/04/17 01:37:39;;;;;;;;;;;;;;;0.25;100.00;96923.16;1023032;28;19918;-69
2022/04/17 01:38:09;;;;;;;;;;;;;;;0.25;100.00;96919.78;1026497;28;19918;-67
2022/04/17 01:38:43;;;;;;;;;;;;;;;0.23;100.00;96918.19;1031059;28;19917;-70
2022/04/17 01:39:13;;;;;;;;;;;;;;;0.26;100.00;96917.03;1021753;28;19910;-69
2022/04/17 01:39:46;;;;;;;;;;;;;;;0.20;100.00;96917.69;1015263;28;19911;-70
2022/04/17 01:40:19;;;;;;;;;;;;;;;0.19;100.00;96916.09;1011167;29;20367;-68
2022/04/17 01:40:49;;;;;;;;;;;;;;;0.21;100.00;96909.78;1012184;29;19927;-68
2022/04/17 01:41:23;;;;;;;;;;;;;;;0.18;100.00;96915.28;1016434;29;20554;-67
2022/04/17 01:41:53;;;;;;;;;;;;;;;0.17;100.00;96916.28;1019227;29;20120;-69
2022/04/17 01:42:23;;;;;;;;;;;;;;;0.17;100.00;96912.91;1026674;28;20319;-70
2022/04/17 01:42:54;;;;;;;;;;;;;;;0.15;100.00;96918.22;1027136;28;19965;-68
2022/04/17 01:43:24;;;;;;;;;;;;;;;0.12;100.00;96908.22;1030729;28;20395;-68
2022/04/17 01:43:54;;;;;;;;;;;;;;;0.11;100.00;96914.34;1031106;28;20331;-70
2022/04/17 01:44:25;;;;;;;;;;;;;;;0.11;100.00;96913.56;1026403;28;19965;-68
2022/04/17 01:44:56;;;;;;;;;;;;;;;0.08;100.00;96908.72;1022745;28;19922;-68
2022/04/17 01:45:26;;;;;;;;;;;;;;;0.06;100.00;96914.03;1023033;28;19989;-69
2022/04/17 01:45:57;;;;;;;;;;;;;;;0.05;100.00;96915.03;1022889;28;19940;-68
2022/04/17 01:46:27;;;;;;;;;;;;;;;0.04;100.00;96912.63;1026706;28;19925;-68
2022/04/17 01:46:57;;;;;;;;;;;;;;;0.01;100.00;96916.34;1026387;28;20308;-69
2022/04/17 01:47:28;;;;;;;;;;;;;;;0.00;100.00;96917.31;1030835;28;20654;-69
2022/04/17 01:47:58;;;;;;;;;;;;;;;-0.01;100.00;96916.47;1030559;28;19926;-70
2022/04/17 01:48:31;;;;;;;;;;;;;;;0.02;100.00;96915.34;1026859;28;19922;-69
2022/04/17 01:49:01;;;;;;;;;;;;;;;-0.04;100.00;96911.66;1026744;28;20315;-69
2022/04/17 01:49:32;;;;;;;;;;;;;;;-0.05;100.00;96910.06;1025755;28;19922;-66
2022/04/17 01:50:03;;;;;;;;;;;;;;;-0.03;100.00;96912.47;1030838;28;19925;-70
2022/04/17 01:50:33;;;;;;;;;;;;;;;-0.03;100.00;96913.28;1026691;28;20003;-70
2022/04/17 01:51:03;;;;;;;;;;;;;;;-0.03;100.00;96915.06;1027369;28;20235;-70
2022/04/17 01:51:38;;;;;;;;;;;;;;;-0.06;100.00;96912.81;1030641;28;19957;-70
2022/04/17 01:52:08;;;;;;;;;;;;;;;-0.09;100.00;96907.97;1027774;28;19918;-69
2022/04/17 01:52:38;;;;;;;;;;;;;;;-0.07;100.00;96908.59;1030338;28;19917;-67
2022/04/17 01:53:09;;;;;;;;;;;;;;;-0.09;100.00;96907.97;1018516;28;19918;-70
2022/04/17 01:53:39;;;;;;;;;;;;;;;-0.07;100.00;96908.59;1020160;29;19933;-69
2022/04/17 01:54:10;;;;;;;;;;;;;;;-0.09;100.00;96913.16;1023343;29;20025;-68
2022/04/17 01:54:40;;;;;;;;;;;;;;;-0.11;100.00;96915.06;1017335;28;19938;-70
2022/04/17 01:55:11;;;;;;;;;;;;;;;-0.09;100.00;96908.78;1028292;28;19927;-70
2022/04/17 01:55:41;;;;;;;;;;;;;;;-0.11;100.00;96910.72;1024293;29;19922;-67
2022/04/17 01:56:11;;;;;;;;;;;;;;;-0.11;100.00;96909.91;1020156;29;20457;-69
2022/04/17 01:56:42;;;;;;;;;;;;;;;-0.12;100.00;96909.09;1023484;28;19925;-66
2022/04/17 01:57:12;;;;;;;;;;;;;;;-0.16;100.00;96904.47;1027634;28;19921;-69
2022/04/17 01:57:42;;;;;;;;;;;;;;;-0.15;100.00;96908.66;1027783;28;19914;-68
2022/04/17 01:58:13;;;;;;;;;;;;;;;-0.16;100.00;96904.47;1027325;28;19981;-70
2022/04/17 01:58:43;;;;;;;;;;;;;;;-0.18;100.00;96906.38;1031464;28;19921;-69
2022/04/17 01:59:13;;;;;;;;;;;;;;;-0.17;100.00;96901.06;1027775;28;19914;-69
2022/04/17 01:59:44;;;;;;;;;;;;;;;-0.19;100.00;96902.22;1031127;28;19949;-70
2022/04/17 02:00:17;;;;;;;;;;;;;;;-0.18;100.00;96898.66;1027560;28;19918;-67
2022/04/17 02:00:47;;;;;;;;;;;;;;;-0.19;100.00;96892.69;1027484;28;20400;-70
2022/04/17 02:01:18;;;;;;;;;;;;;;;-0.23;100.00;96899.16;1027674;28;19977;-69
2022/04/17 02:01:48;;;;;;;;;;;;;;;-0.21;100.00;96894.63;1027962;28;19919;-69
2022/04/17 02:02:18;;;;;;;;;;;;;;;-0.25;100.00;96893.34;1027479;28;20519;-71
2022/04/17 02:02:49;;;;;;;;;;;;;;;-0.24;100.00;96895.75;1023274;29;19915;-69
2022/04/17 02:03:19;;;;;;;;;;;;;;;-0.24;100.00;96900.13;1023873;28;19915;-69
2022/04/17 02:03:49;;;;;;;;;;;;;;;-0.22;100.00;96894.81;1023560;28;20519;-69
2022/04/17 02:04:20;;;;;;;;;;;;;;;-0.22;100.00;96897.38;1027523;28;19914;-70
2022/04/17 02:04:50;;;;;;;;;;;;;;;-0.24;100.00;96900.91;1027502;28;19913;-70
2022/04/17 02:05:21;;;;;;;;;;;;;;;-0.26;100.00;96892.56;1019961;28;19915;-68
2022/04/17 02:05:51;;;;;;;;;;;;;;;-0.26;100.00;96892.56;1023753;29;20453;-68
2022/04/17 02:06:21;;;;;;;;;;;;;;;-0.22;100.00;96897.38;1023556;28;19915;-67
2022/04/17 02:06:52;;;;;;;;;;;;;;;-0.25;100.00;96898.50;1022762;28;19926;-69
2022/04/17 02:07:22;;;;;;;;;;;;;;;-0.24;100.00;96895.75;1020519;28;20377;-70
2022/04/17 02:07:52;;;;;;;;;;;;;;;-0.25;100.00;96908.81;1019505;29;19918;-69
2022/04/17 02:08:23;;;;;;;;;;;;;;;-0.25;100.00;96909.63;1023555;29;19925;-67
2022/04/17 02:08:54;;;;;;;;;;;;;;;-0.24;100.00;96900.13;1023972;28;19921;-69
2022/04/17 02:09:25;;;;;;;;;;;;;;;-0.24;100.00;96900.91;1027279;28;20096;-69
2022/04/17 02:09:55;;;;;;;;;;;;;;;-0.28;100.00;96891.09;1027961;28;19925;-67
2022/04/17 02:10:25;;;;;;;;;;;;;;;-0.31;100.00;96899.97;1019297;29;19950;-67
2022/04/17 02:10:59;;;;;;;;;;;;;;;-0.29;100.00;96887.72;1019775;29;19915;-66
2022/04/17 02:11:29;;;;;;;;;;;;;;;-0.30;100.00;96885.31;1027541;28;20030;-67
2022/04/17 02:12:00;;;;;;;;;;;;;;;-0.32;100.00;96887.25;1020488;28;20120;-70
2022/04/17 02:12:31;;;;;;;;;;;;;;;-0.31;100.00;96884.50;1027245;28;19915;-69
2022/04/17 02:13:01;;;;;;;;;;;;;;;-0.29;100.00;96885.16;1027767;28;19914;-69
2022/04/17 02:13:34;;;;;;;;;;;;;;;-0.29;100.00;96880.00;1027546;28;20556;-70
2022/04/17 02:14:05;;;;;;;;;;;;;;;-0.27;100.00;96880.63;1025181;28;20599;-70
2022/04/17 02:14:35;;;;;;;;;;;;;;;-0.27;100.00;96885.78;1019970;29;19915;-70
2022/04/17 02:15:05;;;;;;;;;;;;;;;-0.28;100.00;96880.78;1023485;29;19918;-66
2022/04/17 02:15:36;;;;;;;;;;;;;;;-0.29;100.00;96886.94;1023643;28;19919;-66
2022/04/17 02:16:06;;;;;;;;;;;;;;;-0.28;100.00;96886.75;1024114;28;19918;-68
2022/04/17 02:16:37;;;;;;;;;;;;;;;-0.28;100.00;96893.69;1031427;28;20008;-69
2022/04/17 02:17:07;;;;;;;;;;;;;;;-0.30;100.00;96891.28;1026981;28;20351;-68
2022/04/17 02:17:37;;;;;;;;;;;;;;;-0.31;100.00;96881.91;1027076;28;19990;-69
2022/04/17 02:18:07;;;;;;;;;;;;;;;-0.34;100.00;96884.03;1027605;28;19950;-70
2022/04/17 02:18:38;;;;;;;;;;;;;;;-0.34;100.00;96889.19;1031464;28;19924;-70
2022/04/17 02:19:11;;;;;;;;;;;;;;;-0.35;100.00;96888.38;1033248;28;19918;-69
2022/04/17 02:19:41;;;;;;;;;;;;;;;-0.33;100.00;96883.06;1020176;29;19922;-70
2022/04/17 02:20:12;;;;;;;;;;;;;;;-0.37;100.00;96882.59;1019397;29;19962;-67
2022/04/17 02:20:42;;;;;;;;;;;;;;;-0.38;100.00;96893.88;1015520;29;20293;-67
2022/04/17 02:21:15;;;;;;;;;;;;;;;-0.37;100.00;96882.59;1016195;29;19915;-67
2022/04/17 02:21:45;;;;;;;;;;;;;;;-0.37;100.00;96882.59;1023670;28;20336;-69
2022/04/17 02:22:16;;;;;;;;;;;;;;;-0.38;100.00;96891.28;1028028;28;19914;-68
2022/04/17 02:22:46;;;;;;;;;;;;;;;-0.39;100.00;96884.53;1034928;28;19918;-68
2022/04/17 02:23:16;;;;;;;;;;;;;;;-0.42;100.00;96892.59;1027428;28;20009;-68
2022/04/17 02:23:47;;;;;;;;;;;;;;;-0.43;100.00;96885.03;1027584;28;19910;-67
2022/04/17 02:24:17;;;;;;;;;;;;;;;-0.42;100.00;96886.63;1023245;28;20600;-69
2022/04/17 02:24:47;;;;;;;;;;;;;;;-0.43;100.00;96888.41;1019489;29;20213;-68
2022/04/17 02:25:18;;;;;;;;;;;;;;;-0.47;100.00;96887.09;1015783;29;19919;-70
2022/04/17 02:25:50;;;;;;;;;;;;;;;-0.44;100.00;96891.94;1016160;29;19919;-69
2022/04/17 02:26:21;;;;;;;;;;;;;;;-0.47;100.00;96887.09;1023644;28;19922;-69
2022/04/17 02:26:51;;;;;;;;;;;;;;;-0.45;100.00;96885.19;1023057;28;19914;-68
2022/04/17 02:27:21;;;;;;;;;;;;;;;-0.46;100.00;96891.31;1027409;28;19914;-67
2022/04/17 02:27:52;;;;;;;;;;;;;;;-0.47;100.00;96889.69;1027482;28;19914;-68
2022/04/17 02:28:22;;;;;;;;;;;;;;;-0.47;100.00;96889.69;1027530;28;20408;-69
2022/04/17 02:28:56;;;;;;;;;;;;;;;-0.46;100.00;96885.38;1027423;28;19969;-67
2022/04/17 02:29:26;;;;;;;;;;;;;;;-0.47;100.00;96889.69;1023674;28;20356;-66
2022/04/17 02:29:56;;;;;;;;;;;;;;;-0.49;100.00;96891.66;1023840;28;19978;-70
2022/04/17 02:30:26;;;;;;;;;;;;;;;-0.48;100.00;96882.94;1028117;28;19918;-70
2022/04/17 02:30:57;;;;;;;;;;;;;;;-0.50;100.00;96882.31;1027784;28;19989;-67
2022/04/17 02:31:27;;;;;;;;;;;;;;;-0.49;100.00;96882.13;1031219;28;20605;-68
2022/04/17 02:31:57;;;;;;;;;;;;;;;-0.50;100.00;96882.31;1027603;28;19929;-68
2022/04/17 02:32:28;;;;;;;;;;;;;;;-0.51;100.00;96888.41;1027367;28;19914;-68
2022/04/17 02:32:58;;;;;;;;;;;;;;;-0.53;100.00;96880.06;1023575;28;19953;-70
2022/04/17 02:33:28;;;;;;;;;;;;;;;-0.55;100.00;96882.78;1019727;29;20427;-69
2022/04/17 02:33:59;;;;;;;;;;;;;;;-0.58;100.00;96877.94;1023430;29;19954;-69
2022/04/17 02:34:29;;;;;;;;;;;;;;;-0.58;100.00;96877.16;1019543;28;19914;-67
2022/04/17 02:34:59;;;;;;;;;;;;;;;-0.58;100.00;96880.53;1019680;28;19915;-67
2022/04/17 02:35:30;;;;;;;;;;;;;;;-0.60;100.00;96873.94;1023352;29;19918;-68
2022/04/17 02:36:00;;;;;;;;;;;;;;;-0.59;100.00;96878.13;1020634;28;19911;-69
2022/04/17 02:36:31;;;;;;;;;;;;;;;-0.59;100.00;96873.78;1027274;28;20024;-67
2022/04/17 02:37:01;;;;;;;;;;;;;;;-0.60;100.00;96874.75;1026875;28;19945;-67
2022/04/17 02:37:32;;;;;;;;;;;;;;;-0.58;100.00;96877.16;1027813;28;20038;-67
2022/04/17 02:38:02;;;;;;;;;;;;;;;-0.57;100.00;96874.44;1027332;28;19906;-67
2022/04/17 02:38:32;;;;;;;;;;;;;;;-0.61;100.00;96874.91;1023460;29;19910;-71
2022/04/17 02:39:03;;;;;;;;;;;;;;;-0.62;100.00;96875.88;1023549;29;19911;-67
2022/04/17 02:39:33;;;;;;;;;;;;;;;-0.62;100.00;96865.56;1019210;29;20308;-69
2022/04/17 02:40:05;;;;;;;;;;;;;;;-0.63;100.00;96872.50;1023999;28;20380;-66
2022/04/17 02:40:36;;;;;;;;;;;;;;;-0.63;100.00;96872.50;1023306;29;19910;-66
2022/04/17 02:41:07;;;;;;;;;;;;;;;-0.62;100.00;96865.56;1019534;28;20280;-67
2022/04/17 02:41:37;;;;;;;;;;;;;;;-0.59;100.00;96865.25;1023784;29;19915;-69
2022/04/17 02:42:07;;;;;;;;;;;;;;;-0.58;100.00;96869.41;1019498;29;20304;-69
2022/04/17 02:42:38;;;;;;;;;;;;;;;-0.61;100.00;96862.00;1019621;29;20467;-66
2022/04/17 02:43:08;;;;;;;;;;;;;;;-0.60;100.00;96863.66;1027301;28;19945;-68